Itaguari, Brazil
Current Conditions -  °F | °C
As of 6:00 PM on Sunday 21 Dec 2014 (Local Time) from SBAN Reporting Station
Broken Clouds Broken Clouds  
Wind Chill: 72°   Ceiling: 2000
Heat Index: 72°   Visibility: 6mi
Dew Point: 66°   Wind: 6mph
Humidity: 83%   Direction: 330°NNW
Pressure: 30"   Gusts: NA
Location:  15.92°S, 49.6°W
Report Text: SBAN 212000Z 33005KT 9999 BKN020 FEW025TCU 22/19 Q1016
Loading
Personal Weather Stations






























Interactive Weather Map New forecast layout! Learn more

10-Day Weather Forecast

Advertisements
Track Severe Weather on mobile